sensor_id;sensor_type;location;lat;lon;timestamp;P1;durP1;ratioP1;P2;durP2;ratioP2
67140;SDS011;54058;52.010;5.546;2024-02-14T00:01:52;4.22;;;2.58;;
67140;SDS011;54058;52.010;5.546;2024-02-14T00:04:17;8.43;;;2.60;;
67140;SDS011;54058;52.010;5.546;2024-02-14T00:06:43;3.35;;;2.35;;
67140;SDS011;54058;52.010;5.546;2024-02-14T00:09:10;2.78;;;2.40;;
67140;SDS011;54058;52.010;5.546;2024-02-14T00:11:36;5.18;;;3.03;;
67140;SDS011;54058;52.010;5.546;2024-02-14T00:14:02;4.65;;;2.58;;
67140;SDS011;54058;52.010;5.546;2024-02-14T00:16:28;5.70;;;2.47;;
67140;SDS011;54058;52.010;5.546;2024-02-14T00:18:56;4.85;;;2.45;;
67140;SDS011;54058;52.010;5.546;2024-02-14T00:21:22;2.50;;;2.30;;
67140;SDS011;54058;52.010;5.546;2024-02-14T00:23:49;2.53;;;2.30;;
67140;SDS011;54058;52.010;5.546;2024-02-14T00:26:15;4.88;;;2.22;;
67140;SDS011;54058;52.010;5.546;2024-02-14T00:28:40;3.78;;;2.40;;
67140;SDS011;54058;52.010;5.546;2024-02-14T00:31:06;4.90;;;2.65;;
67140;SDS011;54058;52.010;5.546;2024-02-14T00:33:32;4.25;;;3.00;;
67140;SDS011;54058;52.010;5.546;2024-02-14T00:35:57;3.47;;;2.50;;
67140;SDS011;54058;52.010;5.546;2024-02-14T00:38:23;4.93;;;2.85;;
67140;SDS011;54058;52.010;5.546;2024-02-14T00:40:49;5.47;;;3.40;;
67140;SDS011;54058;52.010;5.546;2024-02-14T00:43:14;2.90;;;2.47;;
67140;SDS011;54058;52.010;5.546;2024-02-14T00:45:40;6.40;;;3.20;;
67140;SDS011;54058;52.010;5.546;2024-02-14T00:48:06;2.88;;;2.67;;
67140;SDS011;54058;52.010;5.546;2024-02-14T00:50:32;3.08;;;2.80;;
67140;SDS011;54058;52.010;5.546;2024-02-14T00:52:58;4.35;;;2.95;;
67140;SDS011;54058;52.010;5.546;2024-02-14T00:55:24;6.07;;;2.92;;
67140;SDS011;54058;52.010;5.546;2024-02-14T00:57:50;4.72;;;3.00;;
67140;SDS011;54058;52.010;5.546;2024-02-14T01:00:16;4.30;;;3.28;;
67140;SDS011;54058;52.010;5.546;2024-02-14T01:02:42;5.83;;;3.23;;
67140;SDS011;54058;52.010;5.546;2024-02-14T01:05:08;3.70;;;3.40;;
67140;SDS011;54058;52.010;5.546;2024-02-14T01:07:34;5.90;;;3.60;;
67140;SDS011;54058;52.010;5.546;2024-02-14T01:10:00;5.05;;;3.35;;
67140;SDS011;54058;52.010;5.546;2024-02-14T01:12:26;3.90;;;3.50;;
67140;SDS011;54058;52.010;5.546;2024-02-14T01:14:53;3.67;;;3.20;;
67140;SDS011;54058;52.010;5.546;2024-02-14T01:17:19;3.90;;;3.50;;
67140;SDS011;54058;52.010;5.546;2024-02-14T01:19:44;5.93;;;3.47;;
67140;SDS011;54058;52.010;5.546;2024-02-14T01:22:10;5.95;;;3.53;;
67140;SDS011;54058;52.010;5.546;2024-02-14T01:24:36;4.72;;;3.63;;
67140;SDS011;54058;52.010;5.546;2024-02-14T01:27:02;6.53;;;4.00;;
67140;SDS011;54058;52.010;5.546;2024-02-14T01:29:28;5.00;;;3.55;;
67140;SDS011;54058;52.010;5.546;2024-02-14T01:31:54;4.97;;;3.47;;
67140;SDS011;54058;52.010;5.546;2024-02-14T01:34:20;4.37;;;3.57;;
67140;SDS011;54058;52.010;5.546;2024-02-14T01:36:47;7.10;;;4.15;;
67140;SDS011;54058;52.010;5.546;2024-02-14T01:39:13;5.10;;;3.95;;
67140;SDS011;54058;52.010;5.546;2024-02-14T01:41:38;6.43;;;3.70;;
67140;SDS011;54058;52.010;5.546;2024-02-14T01:44:10;5.38;;;4.03;;
67140;SDS011;54058;52.010;5.546;2024-02-14T01:46:35;8.32;;;4.00;;
67140;SDS011;54058;52.010;5.546;2024-02-14T01:49:01;5.95;;;4.38;;
67140;SDS011;54058;52.010;5.546;2024-02-14T01:51:28;6.95;;;4.40;;
67140;SDS011;54058;52.010;5.546;2024-02-14T01:53:54;7.05;;;4.38;;
67140;SDS011;54058;52.010;5.546;2024-02-14T01:56:21;10.20;;;4.93;;
67140;SDS011;54058;52.010;5.546;2024-02-14T01:58:47;8.32;;;4.60;;
67140;SDS011;54058;52.010;5.546;2024-02-14T02:01:12;7.22;;;5.25;;
67140;SDS011;54058;52.010;5.546;2024-02-14T02:03:38;6.28;;;4.90;;
67140;SDS011;54058;52.010;5.546;2024-02-14T02:06:05;5.50;;;4.40;;
67140;SDS011;54058;52.010;5.546;2024-02-14T02:08:31;6.53;;;4.72;;
67140;SDS011;54058;52.010;5.546;2024-02-14T02:10:57;7.20;;;4.50;;
67140;SDS011;54058;52.010;5.546;2024-02-14T02:13:23;9.70;;;4.72;;
67140;SDS011;54058;52.010;5.546;2024-02-14T02:15:51;7.65;;;4.95;;
67140;SDS011;54058;52.010;5.546;2024-02-14T02:18:19;10.90;;;5.03;;
67140;SDS011;54058;52.010;5.546;2024-02-14T02:20:45;8.45;;;5.30;;
67140;SDS011;54058;52.010;5.546;2024-02-14T02:23:11;7.40;;;5.40;;
67140;SDS011;54058;52.010;5.546;2024-02-14T02:25:40;9.95;;;4.80;;
67140;SDS011;54058;52.010;5.546;2024-02-14T02:28:06;6.78;;;5.20;;
67140;SDS011;54058;52.010;5.546;2024-02-14T02:30:33;7.18;;;4.75;;
67140;SDS011;54058;52.010;5.546;2024-02-14T02:33:00;6.93;;;5.05;;
67140;SDS011;54058;52.010;5.546;2024-02-14T02:35:27;7.18;;;5.00;;
67140;SDS011;54058;52.010;5.546;2024-02-14T02:37:53;6.70;;;4.78;;
67140;SDS011;54058;52.010;5.546;2024-02-14T02:40:19;5.47;;;4.80;;
67140;SDS011;54058;52.010;5.546;2024-02-14T02:42:46;6.30;;;4.60;;
67140;SDS011;54058;52.010;5.546;2024-02-14T02:45:12;8.85;;;4.70;;
67140;SDS011;54058;52.010;5.546;2024-02-14T02:47:38;6.65;;;4.93;;
67140;SDS011;54058;52.010;5.546;2024-02-14T02:50:04;8.63;;;4.97;;
67140;SDS011;54058;52.010;5.546;2024-02-14T02:52:31;7.13;;;4.78;;
67140;SDS011;54058;52.010;5.546;2024-02-14T02:54:56;6.43;;;4.20;;
67140;SDS011;54058;52.010;5.546;2024-02-14T02:57:22;10.18;;;4.57;;
67140;SDS011;54058;52.010;5.546;2024-02-14T02:59:48;5.70;;;4.40;;
67140;SDS011;54058;52.010;5.546;2024-02-14T03:02:14;7.05;;;4.95;;
67140;SDS011;54058;52.010;5.546;2024-02-14T03:04:40;6.82;;;4.45;;
67140;SDS011;54058;52.010;5.546;2024-02-14T03:07:07;4.82;;;4.30;;
67140;SDS011;54058;52.010;5.546;2024-02-14T03:09:36;6.55;;;5.13;;
67140;SDS011;54058;52.010;5.546;2024-02-14T03:12:02;5.50;;;4.70;;
67140;SDS011;54058;52.010;5.546;2024-02-14T03:14:32;5.97;;;4.63;;
67140;SDS011;54058;52.010;5.546;2024-02-14T03:17:01;5.95;;;4.60;;
67140;SDS011;54058;52.010;5.546;2024-02-14T03:19:27;5.80;;;4.85;;
67140;SDS011;54058;52.010;5.546;2024-02-14T03:21:57;9.50;;;4.93;;
67140;SDS011;54058;52.010;5.546;2024-02-14T03:24:23;6.32;;;5.20;;
67140;SDS011;54058;52.010;5.546;2024-02-14T03:26:51;10.65;;;5.18;;
67140;SDS011;54058;52.010;5.546;2024-02-14T03:29:18;9.90;;;5.78;;
67140;SDS011;54058;52.010;5.546;2024-02-14T03:31:44;7.90;;;5.78;;
67140;SDS011;54058;52.010;5.546;2024-02-14T03:34:11;9.98;;;6.22;;
67140;SDS011;54058;52.010;5.546;2024-02-14T03:36:37;8.50;;;6.18;;
67140;SDS011;54058;52.010;5.546;2024-02-14T03:39:02;11.93;;;7.17;;
67140;SDS011;54058;52.010;5.546;2024-02-14T03:41:30;10.88;;;6.60;;
67140;SDS011;54058;52.010;5.546;2024-02-14T03:43:56;8.27;;;6.50;;
67140;SDS011;54058;52.010;5.546;2024-02-14T03:46:26;8.63;;;7.05;;
67140;SDS011;54058;52.010;5.546;2024-02-14T03:48:52;12.45;;;7.93;;
67140;SDS011;54058;52.010;5.546;2024-02-14T03:51:19;11.67;;;7.20;;
67140;SDS011;54058;52.010;5.546;2024-02-14T03:53:44;13.18;;;8.73;;
67140;SDS011;54058;52.010;5.546;2024-02-14T03:56:10;16.77;;;7.10;;
67140;SDS011;54058;52.010;5.546;2024-02-14T03:58:37;12.27;;;7.63;;
67140;SDS011;54058;52.010;5.546;2024-02-14T04:01:04;10.25;;;7.20;;
67140;SDS011;54058;52.010;5.546;2024-02-14T04:03:29;11.15;;;7.80;;
67140;SDS011;54058;52.010;5.546;2024-02-14T04:05:55;19.73;;;8.07;;
67140;SDS011;54058;52.010;5.546;2024-02-14T04:08:21;11.02;;;8.30;;
67140;SDS011;54058;52.010;5.546;2024-02-14T04:10:47;13.25;;;8.23;;
67140;SDS011;54058;52.010;5.546;2024-02-14T04:13:15;14.00;;;8.07;;
67140;SDS011;54058;52.010;5.546;2024-02-14T04:15:41;12.13;;;8.65;;
67140;SDS011;54058;52.010;5.546;2024-02-14T04:18:08;10.85;;;7.80;;
67140;SDS011;54058;52.010;5.546;2024-02-14T04:20:34;11.30;;;8.35;;
67140;SDS011;54058;52.010;5.546;2024-02-14T04:23:00;12.00;;;8.70;;
67140;SDS011;54058;52.010;5.546;2024-02-14T04:25:26;12.88;;;8.13;;
67140;SDS011;54058;52.010;5.546;2024-02-14T04:27:51;17.73;;;9.85;;
67140;SDS011;54058;52.010;5.546;2024-02-14T04:30:17;12.48;;;8.07;;
67140;SDS011;54058;52.010;5.546;2024-02-14T04:32:43;15.90;;;8.38;;
67140;SDS011;54058;52.010;5.546;2024-02-14T04:35:09;16.85;;;9.40;;
67140;SDS011;54058;52.010;5.546;2024-02-14T04:37:35;18.90;;;9.80;;
67140;SDS011;54058;52.010;5.546;2024-02-14T04:40:01;13.83;;;8.87;;
67140;SDS011;54058;52.010;5.546;2024-02-14T04:42:29;19.65;;;9.48;;
67140;SDS011;54058;52.010;5.546;2024-02-14T04:44:54;16.58;;;8.98;;
67140;SDS011;54058;52.010;5.546;2024-02-14T04:47:20;17.40;;;8.57;;
67140;SDS011;54058;52.010;5.546;2024-02-14T04:49:46;15.27;;;9.35;;
67140;SDS011;54058;52.010;5.546;2024-02-14T04:52:12;18.20;;;9.77;;
67140;SDS011;54058;52.010;5.546;2024-02-14T04:54:37;16.50;;;10.73;;
67140;SDS011;54058;52.010;5.546;2024-02-14T04:57:03;12.82;;;9.80;;
67140;SDS011;54058;52.010;5.546;2024-02-14T04:59:29;16.88;;;10.05;;
67140;SDS011;54058;52.010;5.546;2024-02-14T05:01:55;17.85;;;10.40;;
67140;SDS011;54058;52.010;5.546;2024-02-14T05:04:21;21.85;;;11.93;;
67140;SDS011;54058;52.010;5.546;2024-02-14T05:06:47;18.65;;;9.75;;
67140;SDS011;54058;52.010;5.546;2024-02-14T05:09:13;15.27;;;10.23;;
67140;SDS011;54058;52.010;5.546;2024-02-14T05:11:40;12.17;;;8.93;;
67140;SDS011;54058;52.010;5.546;2024-02-14T05:14:05;14.88;;;9.80;;
67140;SDS011;54058;52.010;5.546;2024-02-14T05:16:31;17.50;;;10.30;;
67140;SDS011;54058;52.010;5.546;2024-02-14T05:18:56;16.73;;;10.73;;
67140;SDS011;54058;52.010;5.546;2024-02-14T05:21:22;13.93;;;9.57;;
67140;SDS011;54058;52.010;5.546;2024-02-14T05:23:48;14.15;;;9.50;;
67140;SDS011;54058;52.010;5.546;2024-02-14T05:26:14;14.00;;;10.02;;
67140;SDS011;54058;52.010;5.546;2024-02-14T05:28:40;19.48;;;11.48;;
67140;SDS011;54058;52.010;5.546;2024-02-14T05:31:07;13.93;;;9.77;;
67140;SDS011;54058;52.010;5.546;2024-02-14T05:33:32;14.85;;;10.43;;
67140;SDS011;54058;52.010;5.546;2024-02-14T05:35:58;16.85;;;10.75;;
67140;SDS011;54058;52.010;5.546;2024-02-14T05:38:24;12.25;;;9.68;;
67140;SDS011;54058;52.010;5.546;2024-02-14T05:40:49;12.88;;;8.88;;
67140;SDS011;54058;52.010;5.546;2024-02-14T05:43:15;11.75;;;9.75;;
67140;SDS011;54058;52.010;5.546;2024-02-14T05:45:44;20.35;;;10.43;;
67140;SDS011;54058;52.010;5.546;2024-02-14T05:48:10;13.23;;;10.85;;
67140;SDS011;54058;52.010;5.546;2024-02-14T05:50:35;14.68;;;9.93;;
67140;SDS011;54058;52.010;5.546;2024-02-14T05:53:01;18.10;;;11.25;;
67140;SDS011;54058;52.010;5.546;2024-02-14T05:55:28;14.95;;;10.68;;
67140;SDS011;54058;52.010;5.546;2024-02-14T05:57:53;18.50;;;10.68;;
67140;SDS011;54058;52.010;5.546;2024-02-14T06:00:19;16.23;;;11.63;;
67140;SDS011;54058;52.010;5.546;2024-02-14T06:02:46;15.80;;;10.43;;
67140;SDS011;54058;52.010;5.546;2024-02-14T06:05:12;14.73;;;9.93;;
67140;SDS011;54058;52.010;5.546;2024-02-14T06:07:38;16.45;;;11.23;;
67140;SDS011;54058;52.010;5.546;2024-02-14T06:10:05;12.57;;;10.15;;
67140;SDS011;54058;52.010;5.546;2024-02-14T06:12:32;15.00;;;10.82;;
67140;SDS011;54058;52.010;5.546;2024-02-14T06:14:58;16.42;;;9.90;;
67140;SDS011;54058;52.010;5.546;2024-02-14T06:17:23;11.98;;;9.77;;
67140;SDS011;54058;52.010;5.546;2024-02-14T06:19:51;12.73;;;9.60;;
67140;SDS011;54058;52.010;5.546;2024-02-14T06:22:17;13.25;;;9.95;;
67140;SDS011;54058;52.010;5.546;2024-02-14T06:24:42;12.15;;;9.73;;
67140;SDS011;54058;52.010;5.546;2024-02-14T06:27:08;13.02;;;10.43;;
67140;SDS011;54058;52.010;5.546;2024-02-14T06:29:33;13.63;;;10.45;;
67140;SDS011;54058;52.010;5.546;2024-02-14T06:31:59;11.25;;;9.13;;
67140;SDS011;54058;52.010;5.546;2024-02-14T06:34:25;13.60;;;10.00;;
67140;SDS011;54058;52.010;5.546;2024-02-14T06:36:52;15.55;;;10.65;;
67140;SDS011;54058;52.010;5.546;2024-02-14T06:39:18;12.63;;;10.20;;
67140;SDS011;54058;52.010;5.546;2024-02-14T06:41:45;12.32;;;9.90;;
67140;SDS011;54058;52.010;5.546;2024-02-14T06:44:12;12.98;;;9.77;;
67140;SDS011;54058;52.010;5.546;2024-02-14T06:46:37;16.77;;;10.88;;
67140;SDS011;54058;52.010;5.546;2024-02-14T06:49:03;14.18;;;10.02;;
67140;SDS011;54058;52.010;5.546;2024-02-14T06:51:29;13.70;;;9.95;;
67140;SDS011;54058;52.010;5.546;2024-02-14T06:53:55;15.13;;;10.60;;
67140;SDS011;54058;52.010;5.546;2024-02-14T06:56:21;13.80;;;10.38;;
67140;SDS011;54058;52.010;5.546;2024-02-14T06:58:47;13.27;;;9.68;;
67140;SDS011;54058;52.010;5.546;2024-02-14T07:01:17;15.65;;;11.00;;
67140;SDS011;54058;52.010;5.546;2024-02-14T07:03:46;14.02;;;11.07;;
67140;SDS011;54058;52.010;5.546;2024-02-14T07:06:13;13.57;;;9.98;;
67140;SDS011;54058;52.010;5.546;2024-02-14T07:08:41;16.73;;;10.48;;
67140;SDS011;54058;52.010;5.546;2024-02-14T07:11:07;14.25;;;11.05;;
67140;SDS011;54058;52.010;5.546;2024-02-14T07:13:33;15.15;;;12.07;;
67140;SDS011;54058;52.010;5.546;2024-02-14T07:15:58;14.68;;;10.52;;
67140;SDS011;54058;52.010;5.546;2024-02-14T07:18:24;18.08;;;11.77;;
67140;SDS011;54058;52.010;5.546;2024-02-14T07:20:50;16.60;;;11.63;;
67140;SDS011;54058;52.010;5.546;2024-02-14T07:23:19;17.45;;;11.32;;
67140;SDS011;54058;52.010;5.546;2024-02-14T07:25:45;16.63;;;10.88;;
67140;SDS011;54058;52.010;5.546;2024-02-14T07:28:11;13.82;;;11.57;;
67140;SDS011;54058;52.010;5.546;2024-02-14T07:30:37;17.92;;;11.43;;
67140;SDS011;54058;52.010;5.546;2024-02-14T07:33:03;16.90;;;11.27;;
67140;SDS011;54058;52.010;5.546;2024-02-14T07:35:28;20.88;;;12.10;;
67140;SDS011;54058;52.010;5.546;2024-02-14T07:37:54;17.20;;;11.20;;
67140;SDS011;54058;52.010;5.546;2024-02-14T07:40:20;16.08;;;11.82;;
67140;SDS011;54058;52.010;5.546;2024-02-14T07:42:47;18.27;;;12.07;;
67140;SDS011;54058;52.010;5.546;2024-02-14T07:45:12;19.65;;;12.10;;
67140;SDS011;54058;52.010;5.546;2024-02-14T07:47:38;18.40;;;10.77;;
67140;SDS011;54058;52.010;5.546;2024-02-14T07:50:05;16.17;;;11.83;;
67140;SDS011;54058;52.010;5.546;2024-02-14T07:52:31;18.92;;;11.93;;
67140;SDS011;54058;52.010;5.546;2024-02-14T07:54:57;16.70;;;11.07;;
67140;SDS011;54058;52.010;5.546;2024-02-14T07:57:23;14.98;;;10.82;;
67140;SDS011;54058;52.010;5.546;2024-02-14T07:59:50;16.10;;;11.38;;
67140;SDS011;54058;52.010;5.546;2024-02-14T08:02:17;15.88;;;11.13;;
67140;SDS011;54058;52.010;5.546;2024-02-14T08:04:42;18.48;;;11.63;;
67140;SDS011;54058;52.010;5.546;2024-02-14T08:07:08;15.00;;;10.85;;
67140;SDS011;54058;52.010;5.546;2024-02-14T08:09:34;19.30;;;11.63;;
67140;SDS011;54058;52.010;5.546;2024-02-14T08:12:00;18.10;;;10.90;;
67140;SDS011;54058;52.010;5.546;2024-02-14T08:14:26;14.15;;;10.93;;
67140;SDS011;54058;52.010;5.546;2024-02-14T08:16:52;16.80;;;11.52;;
67140;SDS011;54058;52.010;5.546;2024-02-14T08:19:17;15.30;;;11.05;;
67140;SDS011;54058;52.010;5.546;2024-02-14T08:21:43;17.73;;;11.30;;
67140;SDS011;54058;52.010;5.546;2024-02-14T08:24:09;13.98;;;10.48;;
67140;SDS011;54058;52.010;5.546;2024-02-14T08:26:35;17.65;;;11.15;;
67140;SDS011;54058;52.010;5.546;2024-02-14T08:29:01;16.35;;;11.13;;
67140;SDS011;54058;52.010;5.546;2024-02-14T08:31:27;15.50;;;10.93;;
67140;SDS011;54058;52.010;5.546;2024-02-14T08:33:52;14.35;;;11.05;;
67140;SDS011;54058;52.010;5.546;2024-02-14T08:36:19;17.20;;;11.20;;
67140;SDS011;54058;52.010;5.546;2024-02-14T08:38:44;14.80;;;10.95;;
67140;SDS011;54058;52.010;5.546;2024-02-14T08:41:10;15.07;;;10.07;;
67140;SDS011;54058;52.010;5.546;2024-02-14T08:43:37;15.25;;;11.30;;
67140;SDS011;54058;52.010;5.546;2024-02-14T08:46:02;13.85;;;10.43;;
67140;SDS011;54058;52.010;5.546;2024-02-14T08:48:28;14.25;;;10.10;;
67140;SDS011;54058;52.010;5.546;2024-02-14T08:50:57;15.73;;;9.57;;
67140;SDS011;54058;52.010;5.546;2024-02-14T08:53:23;11.68;;;9.23;;
67140;SDS011;54058;52.010;5.546;2024-02-14T08:55:49;12.07;;;9.43;;
67140;SDS011;54058;52.010;5.546;2024-02-14T08:58:14;18.90;;;9.23;;
67140;SDS011;54058;52.010;5.546;2024-02-14T09:00:40;10.32;;;8.07;;
67140;SDS011;54058;52.010;5.546;2024-02-14T09:03:06;12.77;;;9.68;;
67140;SDS011;54058;52.010;5.546;2024-02-14T09:05:31;14.70;;;8.98;;
67140;SDS011;54058;52.010;5.546;2024-02-14T09:07:57;10.95;;;8.48;;
67140;SDS011;54058;52.010;5.546;2024-02-14T09:10:24;11.10;;;8.63;;
67140;SDS011;54058;52.010;5.546;2024-02-14T09:12:50;9.48;;;7.88;;
67140;SDS011;54058;52.010;5.546;2024-02-14T09:15:15;10.77;;;8.05;;
67140;SDS011;54058;52.010;5.546;2024-02-14T09:17:41;9.40;;;7.35;;
67140;SDS011;54058;52.010;5.546;2024-02-14T09:20:08;11.93;;;7.50;;
67140;SDS011;54058;52.010;5.546;2024-02-14T09:22:37;10.70;;;7.15;;
67140;SDS011;54058;52.010;5.546;2024-02-14T09:25:06;10.18;;;7.55;;
67140;SDS011;54058;52.010;5.546;2024-02-14T09:27:34;9.77;;;6.75;;
67140;SDS011;54058;52.010;5.546;2024-02-14T09:30:01;8.90;;;7.10;;
67140;SDS011;54058;52.010;5.546;2024-02-14T09:32:32;8.48;;;6.60;;
67140;SDS011;54058;52.010;5.546;2024-02-14T09:35:00;11.52;;;7.00;;
67140;SDS011;54058;52.010;5.546;2024-02-14T09:37:28;11.27;;;7.25;;
67140;SDS011;54058;52.010;5.546;2024-02-14T09:39:54;9.40;;;7.30;;
67140;SDS011;54058;52.010;5.546;2024-02-14T09:42:26;12.93;;;7.80;;
67140;SDS011;54058;52.010;5.546;2024-02-14T09:44:57;11.57;;;7.95;;
67140;SDS011;54058;52.010;5.546;2024-02-14T09:47:24;13.10;;;8.30;;
67140;SDS011;54058;52.010;5.546;2024-02-14T09:49:52;9.73;;;7.68;;
67140;SDS011;54058;52.010;5.546;2024-02-14T09:52:18;14.13;;;7.82;;
67140;SDS011;54058;52.010;5.546;2024-02-14T09:54:47;12.98;;;7.45;;
67140;SDS011;54058;52.010;5.546;2024-02-14T09:57:13;13.95;;;8.48;;
67140;SDS011;54058;52.010;5.546;2024-02-14T09:59:41;13.90;;;8.60;;
67140;SDS011;54058;52.010;5.546;2024-02-14T10:04:35;15.10;;;8.02;;
67140;SDS011;54058;52.010;5.546;2024-02-14T10:07:02;10.70;;;8.70;;
67140;SDS011;54058;52.010;5.546;2024-02-14T10:09:39;13.55;;;8.15;;
67140;SDS011;54058;52.010;5.546;2024-02-14T10:12:07;10.18;;;8.13;;
67140;SDS011;54058;52.010;5.546;2024-02-14T10:14:34;13.50;;;8.73;;
67140;SDS011;54058;52.010;5.546;2024-02-14T10:17:01;14.63;;;7.15;;
67140;SDS011;54058;52.010;5.546;2024-02-14T10:19:28;13.47;;;8.07;;
67140;SDS011;54058;52.010;5.546;2024-02-14T10:21:57;11.48;;;7.90;;
67140;SDS011;54058;52.010;5.546;2024-02-14T10:24:24;13.07;;;7.85;;
67140;SDS011;54058;52.010;5.546;2024-02-14T10:26:51;11.38;;;7.20;;
67140;SDS011;54058;52.010;5.546;2024-02-14T10:29:18;14.35;;;8.82;;
67140;SDS011;54058;52.010;5.546;2024-02-14T10:31:48;12.77;;;7.63;;
67140;SDS011;54058;52.010;5.546;2024-02-14T10:34:13;9.63;;;7.07;;
67140;SDS011;54058;52.010;5.546;2024-02-14T10:36:40;9.80;;;7.60;;
67140;SDS011;54058;52.010;5.546;2024-02-14T10:39:09;12.52;;;7.82;;
67140;SDS011;54058;52.010;5.546;2024-02-14T10:41:36;11.70;;;8.35;;
67140;SDS011;54058;52.010;5.546;2024-02-14T10:44:02;12.70;;;7.13;;
67140;SDS011;54058;52.010;5.546;2024-02-14T10:46:33;11.48;;;7.97;;
67140;SDS011;54058;52.010;5.546;2024-02-14T10:49:02;10.02;;;6.65;;
67140;SDS011;54058;52.010;5.546;2024-02-14T10:54:00;9.98;;;6.70;;
67140;SDS011;54058;52.010;5.546;2024-02-14T10:56:30;8.32;;;6.53;;
67140;SDS011;54058;52.010;5.546;2024-02-14T10:58:56;10.73;;;6.85;;
67140;SDS011;54058;52.010;5.546;2024-02-14T11:01:24;8.80;;;7.18;;
67140;SDS011;54058;52.010;5.546;2024-02-14T11:03:51;11.15;;;6.80;;
67140;SDS011;54058;52.010;5.546;2024-02-14T11:06:17;10.15;;;7.13;;
67140;SDS011;54058;52.010;5.546;2024-02-14T11:09:02;10.60;;;6.43;;
67140;SDS011;54058;52.010;5.546;2024-02-14T11:11:35;12.73;;;6.45;;
67140;SDS011;54058;52.010;5.546;2024-02-14T11:14:02;13.38;;;6.97;;
67140;SDS011;54058;52.010;5.546;2024-02-14T11:16:30;10.07;;;6.38;;
67140;SDS011;54058;52.010;5.546;2024-02-14T11:19:07;10.50;;;6.00;;
67140;SDS011;54058;52.010;5.546;2024-02-14T11:21:36;10.02;;;6.05;;
67140;SDS011;54058;52.010;5.546;2024-02-14T11:24:07;11.35;;;6.78;;
67140;SDS011;54058;52.010;5.546;2024-02-14T11:26:39;11.25;;;6.28;;
67140;SDS011;54058;52.010;5.546;2024-02-14T11:29:13;8.48;;;6.30;;
67140;SDS011;54058;52.010;5.546;2024-02-14T11:31:40;7.82;;;5.85;;
67140;SDS011;54058;52.010;5.546;2024-02-14T11:34:06;6.32;;;5.68;;
67140;SDS011;54058;52.010;5.546;2024-02-14T11:36:33;6.13;;;4.90;;
67140;SDS011;54058;52.010;5.546;2024-02-14T11:41:35;8.90;;;4.90;;
67140;SDS011;54058;52.010;5.546;2024-02-14T11:44:03;10.25;;;4.68;;
67140;SDS011;54058;52.010;5.546;2024-02-14T11:46:38;10.15;;;5.03;;
67140;SDS011;54058;52.010;5.546;2024-02-14T11:49:04;10.05;;;4.50;;
67140;SDS011;54058;52.010;5.546;2024-02-14T11:51:32;10.65;;;5.28;;
67140;SDS011;54058;52.010;5.546;2024-02-14T11:54:00;5.72;;;4.65;;
67140;SDS011;54058;52.010;5.546;2024-02-14T11:56:32;8.02;;;4.75;;
67140;SDS011;54058;52.010;5.546;2024-02-14T11:59:00;7.28;;;4.60;;
67140;SDS011;54058;52.010;5.546;2024-02-14T12:01:27;11.57;;;5.68;;
67140;SDS011;54058;52.010;5.546;2024-02-14T12:03:56;11.35;;;4.70;;
67140;SDS011;54058;52.010;5.546;2024-02-14T12:06:26;7.15;;;5.05;;
67140;SDS011;54058;52.010;5.546;2024-02-14T12:08:53;8.30;;;4.95;;
67140;SDS011;54058;52.010;5.546;2024-02-14T12:11:20;6.97;;;4.80;;
67140;SDS011;54058;52.010;5.546;2024-02-14T12:13:50;6.85;;;4.82;;
67140;SDS011;54058;52.010;5.546;2024-02-14T12:16:15;20.70;;;5.03;;
67140;SDS011;54058;52.010;5.546;2024-02-14T12:18:45;6.03;;;4.55;;
67140;SDS011;54058;52.010;5.546;2024-02-14T12:21:11;6.40;;;4.78;;
67140;SDS011;54058;52.010;5.546;2024-02-14T12:23:38;5.68;;;4.72;;
67140;SDS011;54058;52.010;5.546;2024-02-14T12:26:03;10.00;;;4.95;;
67140;SDS011;54058;52.010;5.546;2024-02-14T12:28:30;7.25;;;5.10;;
67140;SDS011;54058;52.010;5.546;2024-02-14T12:30:56;6.97;;;5.15;;
67140;SDS011;54058;52.010;5.546;2024-02-14T12:33:23;8.77;;;5.00;;
67140;SDS011;54058;52.010;5.546;2024-02-14T12:35:55;10.27;;;4.90;;
67140;SDS011;54058;52.010;5.546;2024-02-14T12:38:23;7.55;;;4.95;;
67140;SDS011;54058;52.010;5.546;2024-02-14T12:40:49;5.95;;;4.68;;
67140;SDS011;54058;52.010;5.546;2024-02-14T12:43:16;6.97;;;5.32;;
67140;SDS011;54058;52.010;5.546;2024-02-14T12:45:42;7.57;;;5.50;;
67140;SDS011;54058;52.010;5.546;2024-02-14T12:48:09;8.50;;;5.07;;
67140;SDS011;54058;52.010;5.546;2024-02-14T12:50:36;7.03;;;5.28;;
67140;SDS011;54058;52.010;5.546;2024-02-14T12:53:09;7.20;;;4.88;;
67140;SDS011;54058;52.010;5.546;2024-02-14T12:55:35;5.13;;;4.43;;
67140;SDS011;54058;52.010;5.546;2024-02-14T12:58:01;6.35;;;4.60;;
67140;SDS011;54058;52.010;5.546;2024-02-14T13:00:27;6.10;;;4.35;;
67140;SDS011;54058;52.010;5.546;2024-02-14T13:02:54;6.88;;;4.15;;
67140;SDS011;54058;52.010;5.546;2024-02-14T13:05:19;5.18;;;3.75;;
67140;SDS011;54058;52.010;5.546;2024-02-14T13:07:45;4.00;;;3.40;;
67140;SDS011;54058;52.010;5.546;2024-02-14T13:10:12;3.92;;;3.50;;
67140;SDS011;54058;52.010;5.546;2024-02-14T13:12:37;3.63;;;3.30;;
67140;SDS011;54058;52.010;5.546;2024-02-14T13:15:04;6.22;;;3.33;;
67140;SDS011;54058;52.010;5.546;2024-02-14T13:17:31;4.28;;;3.63;;
67140;SDS011;54058;52.010;5.546;2024-02-14T13:19:56;3.88;;;3.28;;
67140;SDS011;54058;52.010;5.546;2024-02-14T13:22:24;4.82;;;3.33;;
67140;SDS011;54058;52.010;5.546;2024-02-14T13:24:50;5.73;;;3.00;;
67140;SDS011;54058;52.010;5.546;2024-02-14T13:27:16;3.63;;;3.25;;
67140;SDS011;54058;52.010;5.546;2024-02-14T13:29:42;5.47;;;3.28;;
67140;SDS011;54058;52.010;5.546;2024-02-14T13:32:08;3.70;;;3.17;;
67140;SDS011;54058;52.010;5.546;2024-02-14T13:34:34;3.63;;;3.17;;
67140;SDS011;54058;52.010;5.546;2024-02-14T13:37:00;4.30;;;3.38;;
67140;SDS011;54058;52.010;5.546;2024-02-14T13:39:27;6.03;;;3.55;;
67140;SDS011;54058;52.010;5.546;2024-02-14T13:41:53;5.75;;;3.95;;
67140;SDS011;54058;52.010;5.546;2024-02-14T13:44:19;5.35;;;3.35;;
67140;SDS011;54058;52.010;5.546;2024-02-14T13:46:45;4.32;;;3.33;;
67140;SDS011;54058;52.010;5.546;2024-02-14T13:49:11;9.23;;;4.00;;
67140;SDS011;54058;52.010;5.546;2024-02-14T13:51:41;8.93;;;4.18;;
67140;SDS011;54058;52.010;5.546;2024-02-14T13:54:06;8.07;;;3.88;;
67140;SDS011;54058;52.010;5.546;2024-02-14T13:56:34;6.88;;;4.72;;
67140;SDS011;54058;52.010;5.546;2024-02-14T13:58:59;11.00;;;4.80;;
67140;SDS011;54058;52.010;5.546;2024-02-14T14:01:25;11.55;;;5.18;;
67140;SDS011;54058;52.010;5.546;2024-02-14T14:03:51;7.72;;;4.95;;
67140;SDS011;54058;52.010;5.546;2024-02-14T14:06:19;8.75;;;5.40;;
67140;SDS011;54058;52.010;5.546;2024-02-14T14:08:45;8.68;;;4.88;;
67140;SDS011;54058;52.010;5.546;2024-02-14T14:11:11;7.68;;;5.30;;
67140;SDS011;54058;52.010;5.546;2024-02-14T14:13:37;6.93;;;5.47;;
67140;SDS011;54058;52.010;5.546;2024-02-14T14:16:03;10.65;;;5.72;;
67140;SDS011;54058;52.010;5.546;2024-02-14T14:18:31;6.20;;;5.50;;
67140;SDS011;54058;52.010;5.546;2024-02-14T14:20:57;8.25;;;6.00;;
67140;SDS011;54058;52.010;5.546;2024-02-14T14:23:23;10.73;;;6.25;;
67140;SDS011;54058;52.010;5.546;2024-02-14T14:25:48;9.38;;;6.65;;
67140;SDS011;54058;52.010;5.546;2024-02-14T14:28:14;13.23;;;6.55;;
67140;SDS011;54058;52.010;5.546;2024-02-14T14:30:40;7.50;;;6.53;;
67140;SDS011;54058;52.010;5.546;2024-02-14T14:33:06;10.32;;;6.93;;
67140;SDS011;54058;52.010;5.546;2024-02-14T14:35:35;9.10;;;6.38;;
67140;SDS011;54058;52.010;5.546;2024-02-14T14:38:04;8.30;;;6.30;;
67140;SDS011;54058;52.010;5.546;2024-02-14T14:40:30;11.07;;;7.00;;
67140;SDS011;54058;52.010;5.546;2024-02-14T14:42:56;9.07;;;6.65;;